Time;durP1;ratioP1;P1;durP2;ratioP2;P2;SDS_P1;SDS_P2;PMS_P1;PMS_P2;Temp;Humidity;BMP_temperature;BMP_pressure;BME280_temperature;BME280_humidity;BME280_pressure;Samples;Min_cycle;Max_cycle;Signal;HPM_P1;HPM_P2
2021/08/15 00:00:31;;;;;;;21.95;13.15;;;;;;;20.08;100.00;95967.50;1032993;28;20037;-70
2021/08/15 00:01:01;;;;;;;22.17;13.07;;;;;;;20.11;100.00;95978.31;1030730;28;20110;-70
2021/08/15 00:01:32;;;;;;;22.75;13.27;;;;;;;20.10;100.00;95981.31;1027044;28;20515;-71
2021/08/15 00:02:02;;;;;;;17.60;12.48;;;;;;;20.09;100.00;95983.19;1030870;28;20045;-68
2021/08/15 00:02:33;;;;;;;15.73;12.57;;;;;;;20.07;100.00;95981.94;1031119;28;20480;-70
2021/08/15 00:03:04;;;;;;;17.30;12.63;;;;;;;20.00;100.00;95971.78;1038940;28;20018;-68
2021/08/15 00:03:34;;;;;;;18.33;13.05;;;;;;;20.03;100.00;95971.13;1031563;28;20022;-70
2021/08/15 00:04:05;;;;;;;18.33;13.57;;;;;;;20.06;100.00;95977.72;1023833;28;20035;-70
2021/08/15 00:04:35;;;;;;;17.55;13.30;;;;;;;19.98;100.00;95974.72;1027379;28;20027;-70
2021/08/15 00:05:07;;;;;;;17.23;12.65;;;;;;;20.02;100.00;95972.25;1018630;29;20114;-71
2021/08/15 00:05:38;;;;;;;16.90;12.60;;;;;;;20.02;100.00;95980.22;1020291;28;20036;-70
2021/08/15 00:06:08;;;;;;;16.08;13.13;;;;;;;19.98;100.00;95980.06;1027408;28;20048;-71
2021/08/15 00:06:39;;;;;;;15.65;13.13;;;;;;;20.01;100.00;95978.66;1023957;28;20034;-71
2021/08/15 00:07:09;;;;;;;17.27;12.63;;;;;;;19.99;100.00;95978.97;1034713;28;20022;-71
2021/08/15 00:07:40;;;;;;;17.40;13.15;;;;;;;19.96;100.00;95968.19;1028867;28;20049;-70
2021/08/15 00:08:10;;;;;;;16.13;12.30;;;;;;;19.98;100.00;95979.28;1027095;28;20023;-70
2021/08/15 00:08:40;;;;;;;16.80;13.65;;;;;;;19.97;100.00;95978.50;1027654;28;20041;-71
2021/08/15 00:09:11;;;;;;;19.10;12.88;;;;;;;19.96;100.00;95971.63;1034166;28;20820;-71
2021/08/15 00:09:41;;;;;;;14.20;12.32;;;;;;;19.89;100.00;95966.00;1035026;28;20102;-70
2021/08/15 00:10:12;;;;;;;16.08;12.82;;;;;;;19.93;100.00;95977.56;1027150;28;20023;-70
2021/08/15 00:10:43;;;;;;;15.50;12.52;;;;;;;19.92;100.00;95978.69;1035012;28;20022;-70
2021/08/15 00:11:13;;;;;;;18.70;13.63;;;;;;;19.88;100.00;95969.75;1022709;28;20114;-70
2021/08/15 00:11:44;;;;;;;16.20;13.25;;;;;;;19.89;100.00;95976.66;1022441;29;20445;-71
2021/08/15 00:12:14;;;;;;;17.17;13.77;;;;;;;19.88;100.00;95976.94;1021554;29;20026;-70
2021/08/15 00:12:45;;;;;;;15.75;13.50;;;;;;;19.88;100.00;95979.63;1019048;28;20024;-68
2021/08/15 00:13:15;;;;;;;17.02;13.18;;;;;;;19.85;100.00;95975.72;1022980;28;20473;-70
2021/08/15 00:13:46;;;;;;;17.90;12.95;;;;;;;19.85;100.00;95980.25;1024640;28;20676;-70
2021/08/15 00:14:16;;;;;;;18.88;13.90;;;;;;;19.84;100.00;95979.47;1026823;28;20755;-70
2021/08/15 00:14:46;;;;;;;20.92;13.93;;;;;;;19.78;100.00;95973.53;1022353;28;20764;-71
2021/08/15 00:15:17;;;;;;;17.90;12.70;;;;;;;19.83;100.00;95975.25;1022807;28;20027;-70
2021/08/15 00:15:48;;;;;;;19.55;13.77;;;;;;;19.82;100.00;95981.69;1027056;28;20030;-71
2021/08/15 00:16:18;;;;;;;18.90;14.10;;;;;;;19.76;100.00;95969.63;1028730;28;20038;-71
2021/08/15 00:16:48;;;;;;;19.98;13.43;;;;;;;19.80;100.00;95978.53;1031135;28;20041;-70
2021/08/15 00:17:19;;;;;;;17.80;13.70;;;;;;;19.77;100.00;95968.50;1021637;28;20114;-71
2021/08/15 00:17:49;;;;;;;19.45;12.82;;;;;;;19.77;100.00;95974.63;1026197;28;20026;-70
2021/08/15 00:18:20;;;;;;;18.77;13.23;;;;;;;19.78;100.00;95975.41;1030980;28;20034;-71
2021/08/15 00:18:50;;;;;;;21.67;14.38;;;;;;;19.78;100.00;95975.41;1031013;28;20041;-71
2021/08/15 00:19:21;;;;;;;21.63;14.70;;;;;;;19.78;100.00;95972.72;1026480;28;20389;-71
2021/08/15 00:19:51;;;;;;;19.35;13.52;;;;;;;19.75;100.00;95971.50;1022199;28;20049;-71
2021/08/15 00:20:22;;;;;;;23.30;14.23;;;;;;;19.70;100.00;95965.53;1034743;28;20038;-71
2021/08/15 00:20:52;;;;;;;21.77;13.48;;;;;;;19.75;100.00;95976.03;1022602;28;20099;-71
2021/08/15 00:21:23;;;;;;;20.63;13.82;;;;;;;19.75;100.00;95976.03;1024143;28;20039;-70
2021/08/15 00:21:53;;;;;;;17.67;14.45;;;;;;;19.74;100.00;95980.56;1022200;29;20547;-71
2021/08/15 00:22:23;;;;;;;19.98;13.55;;;;;;;19.68;100.00;95968.50;1024631;28;20540;-67
2021/08/15 00:22:55;;;;;;;17.23;14.38;;;;;;;19.72;100.00;95972.13;1015189;29;20475;-70
2021/08/15 00:23:25;;;;;;;22.08;14.48;;;;;;;19.65;100.00;95965.69;1019060;29;20032;-68
2021/08/15 00:23:56;;;;;;;28.92;14.57;;;;;;;19.71;100.00;95970.53;1018785;29;20394;-70
2021/08/15 00:24:26;;;;;;;19.75;14.00;;;;;;;19.65;100.00;95965.69;1019534;28;20398;-69
2021/08/15 00:24:57;;;;;;;23.35;14.52;;;;;;;19.66;100.00;95969.94;1022483;29;20035;-71
2021/08/15 00:25:27;;;;;;;22.38;14.80;;;;;;;19.69;100.00;95972.75;1022818;28;20138;-70
2021/08/15 00:25:58;;;;;;;21.52;14.40;;;;;;;19.68;100.00;95971.16;1024677;28;20032;-70
2021/08/15 00:26:28;;;;;;;24.60;14.05;;;;;;;19.66;100.00;95968.06;1024286;28;20761;-71
2021/08/15 00:26:59;;;;;;;18.23;14.15;;;;;;;19.67;100.00;95968.84;1027058;28;20031;-70
2021/08/15 00:27:29;;;;;;;18.80;14.50;;;;;;;19.60;100.00;95963.19;1026856;28;20776;-70
2021/08/15 00:27:59;;;;;;;18.38;14.43;;;;;;;19.65;100.00;95971.81;1026535;28;20031;-69
2021/08/15 00:28:30;;;;;;;25.10;14.70;;;;;;;19.64;100.00;95969.47;1035113;28;20365;-70
2021/08/15 00:29:01;;;;;;;19.25;14.00;;;;;;;19.64;100.00;95970.25;1039022;28;20032;-70
2021/08/15 00:29:32;;;;;;;21.42;14.15;;;;;;;19.59;100.00;95961.63;1031597;28;20084;-70
2021/08/15 00:30:02;;;;;;;19.67;15.02;;;;;;;19.63;100.00;95967.88;1037718;28;20080;-71
2021/08/15 00:30:33;;;;;;;17.17;13.30;;;;;;;19.62;100.00;95961.00;1039161;28;20499;-71
2021/08/15 00:31:03;;;;;;;17.77;13.70;;;;;;;19.62;100.00;95966.31;1036755;28;20021;-70
2021/08/15 00:31:34;;;;;;;16.50;13.35;;;;;;;19.55;100.00;95959.59;1032357;28;20048;-70
2021/08/15 00:32:06;;;;;;;19.02;14.13;;;;;;;19.54;100.00;95966.00;1034023;28;20026;-71
2021/08/15 00:32:37;;;;;;;20.65;14.02;;;;;;;19.59;100.00;95961.63;1029674;28;20030;-71
2021/08/15 00:33:08;;;;;;;22.02;13.23;;;;;;;19.60;100.00;95963.19;1026794;28;20038;-70
2021/08/15 00:33:38;;;;;;;18.83;13.82;;;;;;;19.57;100.00;95969.91;1026819;28;20030;-70
2021/08/15 00:34:08;;;;;;;16.38;14.15;;;;;;;19.59;100.00;95961.63;1027242;28;20413;-68
2021/08/15 00:34:39;;;;;;;18.95;13.82;;;;;;;19.54;100.00;95960.66;1031466;28;20085;-70
2021/08/15 00:35:09;;;;;;;27.63;14.52;;;;;;;19.48;100.00;95953.16;1022862;28;20053;-70
2021/08/15 00:35:40;;;;;;;17.25;13.35;;;;;;;19.59;100.00;95961.63;1022918;28;20027;-71
2021/08/15 00:36:10;;;;;;;20.35;12.95;;;;;;;19.57;100.00;95966.47;1026455;28;20049;-71
2021/08/15 00:36:41;;;;;;;19.77;14.07;;;;;;;19.57;100.00;95969.13;1026869;28;20019;-69
2021/08/15 00:37:11;;;;;;;19.08;13.95;;;;;;;19.56;100.00;95968.34;1031084;28;20030;-70
2021/08/15 00:37:42;;;;;;;15.75;12.90;;;;;;;19.53;100.00;95958.34;1032713;28;20033;-70
2021/08/15 00:38:12;;;;;;;18.58;13.55;;;;;;;19.54;100.00;95960.66;1034939;28;20037;-72
2021/08/15 00:38:42;;;;;;;19.63;14.93;;;;;;;19.52;100.00;95962.09;1037478;28;20025;-70
2021/08/15 00:39:13;;;;;;;17.58;12.88;;;;;;;19.52;100.00;95960.22;1034938;28;20034;-70
2021/08/15 00:39:43;;;;;;;17.10;12.93;;;;;;;19.51;100.00;95958.63;1034856;28;20022;-71
2021/08/15 00:40:18;;;;;;;17.17;13.80;;;;;;;19.54;100.00;95952.69;1030772;28;20023;-71
2021/08/15 00:40:48;;;;;;;20.30;14.18;;;;;;;19.51;100.00;95950.66;1026022;28;20109;-70
2021/08/15 00:41:18;;;;;;;22.30;14.85;;;;;;;19.51;100.00;95955.97;1018906;29;20036;-71
2021/08/15 00:41:49;;;;;;;24.25;14.18;;;;;;;19.50;100.00;95957.06;1018477;28;20032;-70
2021/08/15 00:42:19;;;;;;;18.60;13.48;;;;;;;19.51;100.00;95955.19;1018954;29;20056;-71
2021/08/15 00:42:50;;;;;;;17.23;14.07;;;;;;;19.48;100.00;95950.50;1019062;28;20036;-70
2021/08/15 00:43:20;;;;;;;17.45;13.27;;;;;;;19.44;100.00;95953.00;1031151;28;20445;-70
2021/08/15 00:43:51;;;;;;;17.83;14.10;;;;;;;19.47;100.00;95959.59;1022753;28;20027;-70
2021/08/15 00:44:21;;;;;;;25.63;15.35;;;;;;;19.47;100.00;95960.34;1022916;28;20031;-71
2021/08/15 00:44:52;;;;;;;21.85;13.77;;;;;;;19.47;100.00;95963.03;1026884;28;20473;-67
2021/08/15 00:45:22;;;;;;;24.13;13.88;;;;;;;19.47;100.00;95962.25;1026819;28;20504;-71
2021/08/15 00:45:53;;;;;;;18.65;14.50;;;;;;;19.47;100.00;95963.03;1031003;28;20030;-70
2021/08/15 00:46:23;;;;;;;17.23;13.55;;;;;;;19.40;100.00;95956.59;1028608;28;20026;-70
2021/08/15 00:46:54;;;;;;;20.58;14.10;;;;;;;19.45;100.00;95959.91;1023172;28;20035;-71
2021/08/15 00:47:25;;;;;;;15.70;13.27;;;;;;;19.39;100.00;95950.50;1019085;29;20032;-71
2021/08/15 00:47:55;;;;;;;19.92;13.93;;;;;;;19.44;100.00;95962.88;1023252;29;20027;-71
2021/08/15 00:48:26;;;;;;;15.55;13.88;;;;;;;19.42;100.00;95963.19;1025924;28;20039;-71
2021/08/15 00:48:56;;;;;;;18.33;13.80;;;;;;;19.44;100.00;95960.97;1023222;28;20039;-71
2021/08/15 00:49:27;;;;;;;15.60;13.18;;;;;;;19.42;100.00;95965.84;1023628;28;20520;-71
2021/08/15 00:50:01;;;;;;;17.25;13.93;;;;;;;19.42;100.00;95955.22;1018838;29;20031;-71
2021/08/15 00:50:31;;;;;;;17.38;14.00;;;;;;;19.44;100.00;95966.31;1024384;28;20027;-70
2021/08/15 00:51:02;;;;;;;16.85;13.20;;;;;;;19.43;100.00;95964.75;1031383;28;20048;-71
2021/08/15 00:51:32;;;;;;;17.73;13.70;;;;;;;19.35;100.00;95952.25;1027291;28;20077;-71
2021/08/15 00:52:03;;;;;;;19.25;14.02;;;;;;;19.43;100.00;95962.09;1030471;28;20026;-70
2021/08/15 00:52:33;;;;;;;18.33;13.68;;;;;;;19.42;100.00;95965.84;1031119;28;20478;-70
2021/08/15 00:53:04;;;;;;;19.95;14.40;;;;;;;19.34;100.00;95948.00;1031089;28;20022;-71
2021/08/15 00:53:36;;;;;;;17.63;14.65;;;;;;;19.41;100.00;95958.94;1030947;28;20026;-70
2021/08/15 00:54:06;;;;;;;21.88;14.40;;;;;;;19.38;100.00;95962.22;1031051;28;20121;-71
2021/08/15 00:54:36;;;;;;;19.10;14.15;;;;;;;19.37;100.00;95958.00;1023121;29;20035;-70
2021/08/15 00:55:11;;;;;;;20.85;13.73;;;;;;;19.37;100.00;95955.34;1022831;28;20027;-70
2021/08/15 00:55:42;;;;;;;17.17;13.73;;;;;;;19.37;100.00;95959.91;1026437;28;20066;-70
2021/08/15 00:56:12;;;;;;;19.25;14.35;;;;;;;19.32;100.00;95952.84;1025781;28;20035;-71
2021/08/15 00:56:47;;;;;;;21.17;13.63;;;;;;;19.37;100.00;95959.91;1034969;28;20041;-69
2021/08/15 00:57:17;;;;;;;20.35;13.57;;;;;;;19.37;100.00;95962.56;1031029;28;20033;-71
2021/08/15 00:57:47;;;;;;;18.75;14.05;;;;;;;19.35;100.00;95962.06;1031624;28;20033;-70
2021/08/15 00:58:18;;;;;;;19.60;13.95;;;;;;;19.27;100.00;95945.03;1030565;28;20031;-70
2021/08/15 00:58:50;;;;;;;17.13;14.13;;;;;;;19.33;100.00;95959.75;1027214;28;20528;-69
2021/08/15 00:59:20;;;;;;;18.70;14.95;;;;;;;19.31;100.00;95961.91;1026799;28;20403;-71
2021/08/15 00:59:51;;;;;;;17.13;13.73;;;;;;;19.30;100.00;95961.13;1027019;28;20031;-68
2021/08/15 01:00:21;;;;;;;16.45;14.00;;;;;;;19.29;100.00;95956.16;1027521;28;20089;-72
2021/08/15 01:00:52;;;;;;;15.98;13.95;;;;;;;19.29;100.00;95959.59;1018977;29;20452;-70
2021/08/15 01:01:22;;;;;;;20.05;14.45;;;;;;;19.29;100.00;95961.47;1020858;28;20104;-70
2021/08/15 01:01:53;;;;;;;16.20;14.50;;;;;;;19.28;100.00;95957.22;1025638;28;20030;-70
2021/08/15 01:02:24;;;;;;;19.83;15.13;;;;;;;19.25;100.00;95952.56;1023078;28;20023;-70
2021/08/15 01:02:55;;;;;;;18.35;14.48;;;;;;;19.26;100.00;95957.53;1022926;29;20034;-71
2021/08/15 01:03:25;;;;;;;16.55;13.95;;;;;;;19.23;100.00;95949.41;1022531;29;20496;-70
2021/08/15 01:03:56;;;;;;;16.92;13.63;;;;;;;19.22;100.00;95951.28;1019095;29;20414;-71
2021/08/15 01:04:26;;;;;;;19.38;14.95;;;;;;;19.23;100.00;95960.03;1019104;29;20027;-71
2021/08/15 01:04:57;;;;;;;20.98;14.25;;;;;;;19.24;100.00;95956.28;1022964;29;20034;-71
2021/08/15 01:05:28;;;;;;;18.80;15.07;;;;;;;19.17;100.00;95945.31;1030226;28;20018;-70
2021/08/15 01:05:59;;;;;;;18.35;15.20;;;;;;;19.19;100.00;95943.16;1022996;29;20026;-71
2021/08/15 01:06:31;;;;;;;18.25;15.48;;;;;;;19.26;100.00;95956.75;1030939;28;20033;-70
2021/08/15 01:07:04;;;;;;;17.83;14.32;;;;;;;19.19;100.00;95948.47;1030509;28;20023;-71
2021/08/15 01:07:35;;;;;;;21.13;14.90;;;;;;;19.23;100.00;95954.72;1031712;28;20033;-70
2021/08/15 01:08:05;;;;;;;20.30;14.20;;;;;;;19.20;100.00;95952.69;1035730;28;20443;-71
2021/08/15 01:08:36;;;;;;;18.00;15.35;;;;;;;19.20;100.00;95960.66;1028901;28;20480;-70
2021/08/15 01:09:06;;;;;;;22.42;16.40;;;;;;;19.20;100.00;95952.69;1026999;28;20019;-70
2021/08/15 01:09:37;;;;;;;22.30;15.88;;;;;;;19.21;100.00;95954.25;1030792;28;20018;-71
2021/08/15 01:10:10;;;;;;;23.67;16.35;;;;;;;19.13;100.00;95947.84;1026608;28;20484;-70
2021/08/15 01:10:40;;;;;;;20.25;14.77;;;;;;;19.17;100.00;95950.66;1022976;29;20094;-70
2021/08/15 01:11:11;;;;;;;23.05;15.55;;;;;;;19.15;100.00;95952.81;1019016;29;20020;-71
2021/08/15 01:11:41;;;;;;;18.02;15.88;;;;;;;19.10;100.00;95950.34;1022232;29;20489;-69
2021/08/15 01:12:12;;;;;;;18.33;15.65;;;;;;;19.10;100.00;95950.34;1025626;28;20023;-71
2021/08/15 01:12:45;;;;;;;17.73;15.60;;;;;;;19.11;100.00;95951.88;1031371;28;20026;-71
2021/08/15 01:13:16;;;;;;;23.05;17.08;;;;;;;19.10;100.00;95956.44;1022985;29;20023;-71
2021/08/15 01:13:47;;;;;;;18.30;16.17;;;;;;;19.11;100.00;95957.22;1023816;28;20023;-68
2021/08/15 01:14:17;;;;;;;22.73;16.60;;;;;;;19.02;100.00;95952.69;1026895;28;20121;-70
2021/08/15 01:14:48;;;;;;;22.55;17.45;;;;;;;19.08;100.00;95956.75;1026929;28;20442;-70
2021/08/15 01:15:19;;;;;;;22.63;17.65;;;;;;;19.07;100.00;95963.16;1027263;28;20142;-70
2021/08/15 01:15:51;;;;;;;22.95;16.55;;;;;;;19.04;100.00;95953.13;1026748;28;20058;-70
2021/08/15 01:16:21;;;;;;;20.17;16.92;;;;;;;19.06;100.00;95950.94;1022129;28;20027;-70
2021/08/15 01:16:52;;;;;;;22.40;16.52;;;;;;;19.07;100.00;95959.72;1023009;29;20464;-70
2021/08/15 01:17:22;;;;;;;24.15;16.15;;;;;;;19.06;100.00;95961.59;1026154;28;20416;-70
2021/08/15 01:17:53;;;;;;;19.08;16.00;;;;;;;19.06;100.00;95961.59;1029794;28;20101;-70
2021/08/15 01:18:26;;;;;;;19.33;16.15;;;;;;;19.02;100.00;95955.34;1030913;28;20022;-71
2021/08/15 01:18:56;;;;;;;23.95;16.70;;;;;;;19.05;100.00;95954.72;1027262;28;20073;-70
2021/08/15 01:19:30;;;;;;;25.27;16.20;;;;;;;19.04;100.00;95949.69;1031355;28;20026;-70
2021/08/15 01:20:00;;;;;;;27.73;16.88;;;;;;;19.04;100.00;95957.66;1027699;28;20508;-71
2021/08/15 01:20:31;;;;;;;21.63;16.20;;;;;;;19.02;100.00;95955.34;1027291;28;20030;-71
2021/08/15 01:21:08;;;;;;;21.00;16.42;;;;;;;19.02;100.00;95957.22;1019092;29;20123;-71
2021/08/15 01:21:40;;;;;;;23.70;16.58;;;;;;;18.99;100.00;95950.63;1024834;28;20054;-71
2021/08/15 01:22:10;;;;;;;20.02;16.38;;;;;;;18.92;100.00;95942.34;1027615;28;20034;-70
2021/08/15 01:22:45;;;;;;;21.95;16.67;;;;;;;18.98;100.00;95954.41;1024047;28;20035;-70
2021/08/15 01:23:15;;;;;;;21.75;16.73;;;;;;;18.97;100.00;95952.03;1021786;29;20022;-71
2021/08/15 01:23:45;;;;;;;19.75;16.33;;;;;;;18.91;100.00;95940.75;1023468;28;20477;-68
2021/08/15 01:24:16;;;;;;;23.17;16.73;;;;;;;18.95;100.00;95955.00;1019519;29;20398;-71
2021/08/15 01:24:48;;;;;;;20.33;15.88;;;;;;;18.94;100.00;95953.44;1022508;28;20027;-70
2021/08/15 01:25:18;;;;;;;20.90;16.35;;;;;;;18.88;100.00;95938.75;1030895;28;20029;-71
2021/08/15 01:25:49;;;;;;;20.60;15.35;;;;;;;18.93;100.00;95946.56;1019069;29;20382;-70
2021/08/15 01:26:20;;;;;;;25.92;16.65;;;;;;;18.93;100.00;95943.91;1018715;29;20028;-70
2021/08/15 01:26:51;;;;;;;23.55;16.20;;;;;;;18.85;100.00;95939.34;1019223;29;20568;-71
2021/08/15 01:27:21;;;;;;;18.52;16.58;;;;;;;18.86;100.00;95935.59;1024977;28;20114;-71
2021/08/15 01:27:52;;;;;;;24.95;17.88;;;;;;;18.91;100.00;95948.72;1031182;28;20400;-70
2021/08/15 01:28:22;;;;;;;19.88;16.77;;;;;;;18.91;100.00;95943.41;1023001;28;20090;-70
2021/08/15 01:28:53;;;;;;;21.65;16.98;;;;;;;18.86;100.00;95940.91;1022881;28;20027;-71
2021/08/15 01:29:23;;;;;;;19.70;15.82;;;;;;;18.91;100.00;95947.94;1027086;28;20039;-71
2021/08/15 01:29:54;;;;;;;20.88;16.00;;;;;;;18.88;100.00;95937.94;1030734;28;20022;-70
2021/08/15 01:30:26;;;;;;;27.90;17.23;;;;;;;18.89;100.00;95948.28;1026719;28;20027;-70
2021/08/15 01:30:57;;;;;;;19.45;16.20;;;;;;;18.82;100.00;95934.66;1029507;28;20022;-70
2021/08/15 01:31:27;;;;;;;24.67;16.52;;;;;;;18.86;100.00;95940.91;1026387;28;20027;-72
2021/08/15 01:31:58;;;;;;;20.85;17.05;;;;;;;18.80;100.00;95926.97;1026109;28;20030;-67
2021/08/15 01:32:28;;;;;;;21.08;16.92;;;;;;;18.80;100.00;95934.16;1026693;28;20740;-70
2021/08/15 01:32:58;;;;;;;25.02;16.75;;;;;;;18.85;100.00;95939.34;1026957;28;20030;-70
2021/08/15 01:33:30;;;;;;;19.73;16.27;;;;;;;18.77;100.00;95924.16;1019508;28;20106;-70
2021/08/15 01:34:01;;;;;;;22.20;16.35;;;;;;;18.82;100.00;95934.66;1023583;28;20094;-72
2021/08/15 01:34:31;;;;;;;23.77;16.50;;;;;;;18.84;100.00;95935.88;1027048;28;20660;-70
2021/08/15 01:35:02;;;;;;;24.48;16.55;;;;;;;18.82;100.00;95934.66;1030428;28;20480;-71
2021/08/15 01:35:33;;;;;;;20.83;16.25;;;;;;;18.82;100.00;95938.09;1026871;28;20031;-71
2021/08/15 01:36:04;;;;;;;24.63;16.10;;;;;;;18.83;100.00;95936.22;1026842;28;20018;-71
2021/08/15 01:36:34;;;;;;;24.88;16.15;;;;;;;18.82;100.00;95940.75;1030538;28;20057;-71
2021/08/15 01:37:07;;;;;;;19.77;15.45;;;;;;;18.82;100.00;95939.97;1027048;28;20074;-70
2021/08/15 01:37:37;;;;;;;19.85;16.75;;;;;;;18.82;100.00;95940.75;1029167;28;20528;-70
2021/08/15 01:38:08;;;;;;;20.33;15.60;;;;;;;18.80;100.00;95931.50;1030809;28;20122;-71
2021/08/15 01:38:38;;;;;;;24.17;17.40;;;;;;;18.78;100.00;95939.81;1026507;28;20034;-70
2021/08/15 01:39:09;;;;;;;20.67;17.08;;;;;;;18.78;100.00;95933.72;1026773;28;20037;-70
2021/08/15 01:39:40;;;;;;;26.85;16.27;;;;;;;18.71;100.00;95928.00;1026939;28;20513;-70
2021/08/15 01:40:13;;;;;;;20.48;16.15;;;;;;;18.70;100.00;95926.47;1029058;28;20791;-70
2021/08/15 01:40:43;;;;;;;18.10;16.08;;;;;;;18.68;100.00;95918.00;1026724;28;20025;-70
2021/08/15 01:41:14;;;;;;;23.23;16.70;;;;;;;18.70;100.00;95932.56;1022758;29;20552;-70
2021/08/15 01:41:44;;;;;;;21.83;16.73;;;;;;;18.75;100.00;95937.00;1025660;28;20876;-71
2021/08/15 01:42:14;;;;;;;25.45;18.02;;;;;;;18.73;100.00;95933.84;1022633;29;20569;-71
2021/08/15 01:42:45;;;;;;;21.02;17.20;;;;;;;18.72;100.00;95934.94;1026586;28;20043;-70
2021/08/15 01:43:15;;;;;;;20.40;15.80;;;;;;;18.66;100.00;95928.19;1026317;28;20109;-68
2021/08/15 01:43:54;;;;;;;25.63;16.98;;;;;;;18.72;100.00;95934.94;1024378;28;20485;-68
2021/08/15 01:44:25;;;;;;;18.48;15.57;;;;;;;18.71;100.00;95928.00;1026115;28;20629;-70
2021/08/15 01:44:55;;;;;;;20.65;17.55;;;;;;;18.65;100.00;95924.75;1030386;28;20038;-70
2021/08/15 01:45:26;;;;;;;22.67;16.88;;;;;;;18.65;100.00;95926.63;1029822;28;20101;-70
2021/08/15 01:45:56;;;;;;;20.95;15.77;;;;;;;18.69;100.00;95932.88;1026656;28;20480;-70
2021/08/15 01:46:28;;;;;;;20.35;16.05;;;;;;;18.62;100.00;95925.34;1030339;28;20049;-71
2021/08/15 01:46:59;;;;;;;21.60;16.95;;;;;;;18.68;100.00;95931.28;1023255;28;20035;-70
2021/08/15 01:47:29;;;;;;;18.00;16.10;;;;;;;18.67;100.00;95933.16;1026597;28;20098;-70
2021/08/15 01:48:00;;;;;;;22.63;16.10;;;;;;;18.65;100.00;95929.28;1026593;28;20030;-71
2021/08/15 01:48:30;;;;;;;20.10;16.80;;;;;;;18.64;100.00;95933.78;1030254;28;20026;-70
2021/08/15 01:49:01;;;;;;;20.55;15.60;;;;;;;18.58;100.00;95927.06;1030652;28;20029;-70
2021/08/15 01:49:31;;;;;;;21.30;16.02;;;;;;;18.64;100.00;95940.97;1030576;28;20037;-71
2021/08/15 01:50:02;;;;;;;19.80;15.63;;;;;;;18.56;100.00;95932.69;1030578;28;20032;-71
2021/08/15 01:50:33;;;;;;;21.30;16.00;;;;;;;18.65;100.00;95940.69;1034888;28;20043;-70
2021/08/15 01:51:03;;;;;;;19.95;16.73;;;;;;;18.61;100.00;95940.53;1034442;28;20030;-71
2021/08/15 01:51:34;;;;;;;20.08;15.98;;;;;;;18.64;100.00;95946.28;1027267;28;20512;-71
2021/08/15 01:52:04;;;;;;;20.52;17.23;;;;;;;18.60;100.00;95933.63;1024916;28;20504;-70
2021/08/15 01:52:35;;;;;;;21.20;16.95;;;;;;;18.62;100.00;95946.63;1026598;28;20042;-69
2021/08/15 01:53:12;;;;;;;18.63;15.68;;;;;;;18.60;100.00;95943.47;1022715;28;20027;-71
2021/08/15 01:53:43;;;;;;;19.42;15.88;;;;;;;18.59;100.00;95942.69;1024623;28;20027;-70
2021/08/15 01:54:14;;;;;;;18.92;15.30;;;;;;;18.58;100.00;95946.44;1031780;28;20034;-70
2021/08/15 01:54:44;;;;;;;19.77;17.20;;;;;;;18.59;100.00;95942.69;1034758;28;20595;-71
2021/08/15 01:55:15;;;;;;;19.52;16.20;;;;;;;18.58;100.00;95946.44;1030505;28;20054;-70
2021/08/15 01:55:45;;;;;;;24.73;16.60;;;;;;;18.57;100.00;95949.41;1030276;28;20038;-70
2021/08/15 01:56:16;;;;;;;23.13;16.45;;;;;;;18.50;100.00;95930.47;1034586;28;20022;-70
2021/08/15 01:56:47;;;;;;;21.30;16.92;;;;;;;18.54;100.00;95950.81;1030710;28;20033;-70
2021/08/15 01:57:17;;;;;;;21.42;16.10;;;;;;;18.56;100.00;95945.19;1030634;28;20030;-70
2021/08/15 01:57:47;;;;;;;19.55;15.60;;;;;;;18.51;100.00;95935.50;1026233;28;20531;-70
2021/08/15 01:58:19;;;;;;;21.70;16.92;;;;;;;18.52;100.00;95942.38;1019097;28;20035;-70
2021/08/15 01:58:49;;;;;;;19.48;16.42;;;;;;;18.53;100.00;95948.47;1022575;29;20121;-71
2021/08/15 01:59:20;;;;;;;20.55;16.85;;;;;;;18.46;100.00;95943.59;1022502;29;20031;-70
2021/08/15 01:59:50;;;;;;;21.35;17.20;;;;;;;18.51;100.00;95943.47;1026701;28;20023;-70
2021/08/15 02:00:20;;;;;;;24.23;16.95;;;;;;;18.50;100.00;95943.75;1026485;28;20066;-70
2021/08/15 02:00:51;;;;;;;23.45;16.58;;;;;;;18.50;100.00;95947.19;1030467;28;20034;-70
2021/08/15 02:01:21;;;;;;;18.73;15.98;;;;;;;18.49;100.00;95945.63;1026777;28;20027;-70
2021/08/15 02:01:52;;;;;;;50.78;19.33;;;;;;;18.46;100.00;95938.28;1025711;28;20190;-70
2021/08/15 02:02:22;;;;;;;68.03;19.95;;;;;;;18.49;100.00;95945.63;1030692;28;20041;-71
2021/08/15 02:02:53;;;;;;;42.75;18.63;;;;;;;18.49;100.00;95942.97;1034692;28;20030;-70
2021/08/15 02:03:23;;;;;;;27.70;18.05;;;;;;;18.47;100.00;95944.38;1030655;28;20022;-70
2021/08/15 02:03:54;;;;;;;28.50;16.77;;;;;;;18.48;100.00;95949.41;1030543;28;20512;-70
2021/08/15 02:04:24;;;;;;;23.30;16.67;;;;;;;18.43;100.00;95933.56;1032974;28;20030;-71
2021/08/15 02:04:54;;;;;;;19.17;16.25;;;;;;;18.48;100.00;95949.41;1034595;28;20034;-71
2021/08/15 02:05:25;;;;;;;23.35;16.00;;;;;;;18.49;100.00;95945.63;1034091;28;20127;-70
2021/08/15 02:05:55;;;;;;;21.48;16.42;;;;;;;18.43;100.00;95938.88;1029424;28;20037;-70
2021/08/15 02:06:26;;;;;;;21.35;15.95;;;;;;;18.48;100.00;95940.66;1026661;28;20517;-70
2021/08/15 02:06:57;;;;;;;20.42;16.52;;;;;;;18.47;100.00;95942.50;1025610;28;20647;-70
2021/08/15 02:07:27;;;;;;;21.75;16.17;;;;;;;18.48;100.00;95937.97;1018761;29;20602;-70
2021/08/15 02:07:57;;;;;;;20.40;16.95;;;;;;;18.48;100.00;95940.66;1025806;28;20031;-70
2021/08/15 02:08:28;;;;;;;20.95;17.60;;;;;;;18.46;100.00;95943.59;1025312;28;20121;-70
2021/08/15 02:08:59;;;;;;;21.95;16.75;;;;;;;18.38;100.00;95926.53;1027039;28;20035;-70
2021/08/15 02:09:29;;;;;;;22.95;16.15;;;;;;;18.47;100.00;95934.53;1030674;28;20481;-70
2021/08/15 02:10:00;;;;;;;21.20;16.15;;;;;;;18.47;100.00;95926.53;1030583;28;20060;-70
2021/08/15 02:10:30;;;;;;;23.25;17.20;;;;;;;18.44;100.00;95923.72;1030479;28;20022;-71
2021/08/15 02:11:01;;;;;;;22.17;17.15;;;;;;;18.48;100.00;95941.41;1030879;28;20061;-70
2021/08/15 02:11:31;;;;;;;19.10;17.02;;;;;;;18.51;100.00;95932.03;1030545;28;20082;-69
2021/08/15 02:12:02;;;;;;;19.23;16.17;;;;;;;18.51;100.00;95937.34;1025212;28;20031;-71
2021/08/15 02:12:32;;;;;;;21.45;16.42;;;;;;;18.47;100.00;95928.44;1026598;28;20544;-68
2021/08/15 02:13:04;;;;;;;22.05;17.00;;;;;;;18.54;100.00;95934.88;1022691;28;20600;-70
2021/08/15 02:13:34;;;;;;;20.75;17.88;;;;;;;18.57;100.00;95938.78;1022900;28;20050;-71
2021/08/15 02:14:05;;;;;;;20.10;17.10;;;;;;;18.53;100.00;95930.63;1022399;28;20639;-71
2021/08/15 02:14:35;;;;;;;20.65;16.58;;;;;;;18.51;100.00;95930.19;1026601;28;20031;-70
2021/08/15 02:15:06;;;;;;;23.45;17.27;;;;;;;18.56;100.00;95931.91;1030707;28;20050;-70
2021/08/15 02:15:36;;;;;;;19.08;17.08;;;;;;;18.56;100.00;95937.22;1034361;28;20438;-70
2021/08/15 02:16:07;;;;;;;20.90;17.10;;;;;;;18.52;100.00;95938.94;1030330;28;20504;-70
2021/08/15 02:16:37;;;;;;;31.77;17.65;;;;;;;18.52;100.00;95937.06;1026856;28;20138;-70
2021/08/15 02:17:08;;;;;;;29.60;17.30;;;;;;;18.47;100.00;95925.75;1026263;28;20087;-70
2021/08/15 02:17:38;;;;;;;21.40;18.10;;;;;;;18.49;100.00;95937.66;1026535;28;20042;-70
2021/08/15 02:18:09;;;;;;;25.98;18.20;;;;;;;18.48;100.00;95944.06;1025449;28;20035;-70
2021/08/15 02:18:39;;;;;;;22.42;17.77;;;;;;;18.48;100.00;95943.31;1034637;28;20052;-71
2021/08/15 02:19:10;;;;;;;23.10;17.27;;;;;;;18.46;100.00;95940.94;1033702;28;20030;-70
2021/08/15 02:19:40;;;;;;;20.70;17.17;;;;;;;18.43;100.00;95938.88;1036965;28;20578;-70
2021/08/15 02:20:12;;;;;;;20.63;16.55;;;;;;;18.45;100.00;95943.91;1030535;28;20404;-70